Time;durP1;ratioP1;P1;durP2;ratioP2;P2;SDS_P1;SDS_P2;PMS_P1;PMS_P2;Temp;Humidity;BMP_temperature;BMP_pressure;BME280_temperature;BME280_humidity;BME280_pressure;Samples;Min_cycle;Max_cycle;Signal;HPM_P1;HPM_P2
2023/11/02 00:00:10;;;;;;;54.75;51.70;;;13.60;99.90;;;;;;5030066;28;20034;-70
2023/11/02 00:02:36;;;;;;;41.30;38.88;;;13.60;99.90;;;;;;5031142;28;20037;-71
2023/11/02 00:05:03;;;;;;;58.97;55.80;;;13.70;99.90;;;;;;5031180;28;20470;-71
2023/11/02 00:07:30;;;;;;;55.47;52.35;;;13.70;99.90;;;;;;5030180;28;20044;-70
2023/11/02 00:09:57;;;;;;;55.97;52.80;;;13.80;99.90;;;;;;5032264;28;20032;-71
2023/11/02 00:12:28;;;;;;;54.67;51.53;;;13.80;99.90;;;;;;5031854;28;20025;-71
2023/11/02 00:14:54;;;;;;;47.40;44.22;;;13.90;99.90;;;;;;5030852;28;20018;-71
2023/11/02 00:17:35;;;;;;;59.75;56.10;;;13.90;99.90;;;;;;5030639;28;20058;-71
2023/11/02 00:20:03;;;;;;;31.75;29.30;;;13.90;99.90;;;;;;5031724;28;20501;-71
2023/11/02 00:22:29;;;;;;;94.18;88.50;;;14.00;99.90;;;;;;5030351;28;20030;-71
2023/11/02 00:25:01;;;;;;;74.70;70.32;;;14.00;99.90;;;;;;5031046;28;20025;-71
2023/11/02 00:27:27;;;;;;;59.55;55.15;;;14.00;99.90;;;;;;5013137;28;20410;-70
2023/11/02 00:29:53;;;;;;;46.05;42.47;;;14.00;99.90;;;;;;5032049;28;20459;-71
2023/11/02 00:32:20;;;;;;;61.53;57.08;;;14.10;99.90;;;;;;5029927;28;20052;-71
2023/11/02 00:34:47;;;;;;;50.65;47.00;;;14.10;99.90;;;;;;5030334;28;20025;-71
2023/11/02 00:37:13;;;;;;;45.00;41.33;;;14.10;99.90;;;;;;5010580;28;20049;-71
2023/11/02 00:39:39;;;;;;;50.42;46.28;;;14.20;99.90;;;;;;5031825;28;20036;-71
2023/11/02 00:42:05;;;;;;;44.47;41.00;;;14.20;99.90;;;;;;5031290;28;20030;-71
2023/11/02 00:44:33;;;;;;;46.70;42.78;;;14.30;99.90;;;;;;5031882;28;20034;-71
2023/11/02 00:47:00;;;;;;;37.03;33.67;;;14.20;99.90;;;;;;5029944;28;20045;-71
2023/11/02 00:49:33;;;;;;;35.55;32.50;;;14.30;99.90;;;;;;5031582;28;20081;-71
2023/11/02 00:52:00;;;;;;;36.60;32.92;;;14.20;99.90;;;;;;5030298;28;20029;-71
2023/11/02 00:55:00;;;;;;;36.80;33.05;;;14.30;99.90;;;;;;5031663;28;20367;-71
2023/11/02 00:57:36;;;;;;;39.53;36.25;;;14.30;99.90;;;;;;5029564;28;20045;-71
2023/11/02 01:00:03;;;;;;;45.42;41.08;;;14.30;99.90;;;;;;5015044;28;20053;-70
2023/11/02 01:02:33;;;;;;;46.38;42.03;;;14.30;99.90;;;;;;5033472;28;20037;-71
2023/11/02 01:05:03;;;;;;;70.20;63.42;;;14.30;99.90;;;;;;5034386;28;20028;-70
2023/11/02 01:07:29;;;;;;;46.65;38.63;;;14.30;99.90;;;;;;5034793;28;20052;-71
2023/11/02 01:10:00;;;;;;;45.33;40.55;;;14.20;99.90;;;;;;5034298;28;20022;-71
2023/11/02 01:12:36;;;;;;;55.03;50.10;;;14.30;99.90;;;;;;5033397;28;20049;-71
2023/11/02 01:15:08;;;;;;;42.65;37.92;;;14.30;99.90;;;;;;5033693;28;20037;-70
2023/11/02 01:17:42;;;;;;;56.88;51.30;;;14.30;99.90;;;;;;5033426;28;20045;-71
2023/11/02 01:20:09;;;;;;;53.72;43.70;;;14.40;99.90;;;;;;5000570;28;20046;-71
2023/11/02 01:22:58;;;;;;;57.75;48.53;;;14.30;99.90;;;;;;5015676;28;20057;-71
2023/11/02 01:25:27;;;;;;;52.95;41.97;;;14.30;99.90;;;;;;5030893;28;20018;-71
2023/11/02 01:28:06;;;;;;;64.00;57.22;;;14.30;99.90;;;;;;5033747;28;20032;-71
2023/11/02 01:30:35;;;;;;;52.95;46.55;;;14.30;99.90;;;;;;5034018;28;20044;-71
2023/11/02 01:33:02;;;;;;;52.05;42.60;;;14.30;99.90;;;;;;5034984;28;20097;-71
2023/11/02 01:35:44;;;;;;;55.05;40.65;;;14.20;99.90;;;;;;5016764;28;20057;-71
2023/11/02 01:38:13;;;;;;;53.83;42.35;;;14.20;99.90;;;;;;5033103;28;20021;-71
2023/11/02 01:40:51;;;;;;;54.63;42.92;;;14.20;99.90;;;;;;5032460;28;20060;-70
2023/11/02 01:43:37;;;;;;;56.85;46.40;;;14.20;99.90;;;;;;5033752;28;20049;-70
2023/11/02 01:46:07;;;;;;;68.30;49.58;;;14.20;99.90;;;;;;5032717;28;20078;-70
2023/11/02 01:48:40;;;;;;;65.35;45.33;;;14.20;99.90;;;;;;5033111;28;20463;-71
2023/11/02 01:51:13;;;;;;;53.17;36.58;;;14.20;99.90;;;;;;5032859;28;20045;-71
2023/11/02 01:54:00;;;;;;;56.00;36.72;;;14.10;99.90;;;;;;5016882;28;20044;-70
2023/11/02 01:56:26;;;;;;;60.80;35.40;;;14.10;99.90;;;;;;5032561;28;20044;-71
2023/11/02 01:59:04;;;;;;;58.88;34.17;;;14.00;99.90;;;;;;5034677;28;20029;-71
2023/11/02 02:01:45;;;;;;;64.57;41.08;;;14.00;99.90;;;;;;5032368;28;20053;-71
2023/11/02 02:04:41;;;;;;;56.05;40.10;;;13.90;99.90;;;;;;5033254;28;20037;-70
2023/11/02 02:07:07;;;;;;;57.55;36.97;;;13.90;99.90;;;;;;5028300;28;20060;-71
2023/11/02 02:09:53;;;;;;;62.75;43.65;;;13.90;99.90;;;;;;5034132;28;20034;-70
2023/11/02 02:12:36;;;;;;;61.85;50.00;;;13.90;99.90;;;;;;5029763;28;20041;-70
2023/11/02 02:15:06;;;;;;;57.58;50.97;;;14.00;99.90;;;;;;5033158;28;20037;-70
2023/11/02 02:17:40;;;;;;;82.70;75.05;;;14.00;99.90;;;;;;5015073;28;20049;-70
2023/11/02 02:20:16;;;;;;;61.97;41.60;;;14.00;99.90;;;;;;5032561;28;20040;-70
2023/11/02 02:22:50;;;;;;;58.85;50.53;;;13.90;99.90;;;;;;5013134;28;20026;-71
2023/11/02 02:25:25;;;;;;;62.55;55.88;;;13.80;99.90;;;;;;5014461;28;20379;-70
2023/11/02 02:28:45;;;;;;;56.47;50.80;;;13.70;99.90;;;;;;5016087;28;20041;-70
2023/11/02 02:31:20;;;;;;;51.55;46.08;;;13.70;99.90;;;;;;4991584;28;20039;-70
2023/11/02 02:34:04;;;;;;;67.15;61.47;;;13.70;99.90;;;;;;4992444;28;20042;-70
2023/11/02 02:36:49;;;;;;;61.72;56.22;;;13.60;99.90;;;;;;4991248;28;20050;-70
2023/11/02 02:39:18;;;;;;;67.10;62.15;;;13.60;99.90;;;;;;4991926;28;20416;-70
2023/11/02 02:41:45;;;;;;;71.95;66.40;;;13.60;99.90;;;;;;4975274;28;20053;-70
2023/11/02 02:44:12;;;;;;;65.18;59.90;;;13.60;99.90;;;;;;4975901;28;20483;-71
2023/11/02 02:46:38;;;;;;;63.58;58.67;;;13.60;99.90;;;;;;4975124;28;20038;-70
2023/11/02 02:49:04;;;;;;;67.40;62.28;;;13.50;99.90;;;;;;4991832;28;20042;-70
2023/11/02 02:51:30;;;;;;;69.80;64.13;;;13.50;99.90;;;;;;4974515;28;20046;-71
2023/11/02 02:53:57;;;;;;;56.53;51.60;;;13.50;99.90;;;;;;4975428;28;20049;-71
2023/11/02 02:56:23;;;;;;;66.75;61.60;;;13.50;99.90;;;;;;4974994;28;20038;-71
2023/11/02 02:59:03;;;;;;;55.20;49.95;;;13.50;99.90;;;;;;4975683;28;20081;-70
2023/11/02 03:01:40;;;;;;;55.55;49.95;;;13.50;99.90;;;;;;4990685;28;20034;-70
2023/11/02 03:04:11;;;;;;;54.53;49.13;;;13.50;99.90;;;;;;4983225;28;20050;-71
2023/11/02 03:06:50;;;;;;;51.60;46.33;;;13.40;99.90;;;;;;5031335;28;20025;-70
2023/11/02 03:09:17;;;;;;;48.05;43.17;;;13.30;99.90;;;;;;5031657;28;20029;-70
2023/11/02 03:11:44;;;;;;;53.67;48.47;;;13.30;99.90;;;;;;5031671;28;20029;-70
2023/11/02 03:14:11;;;;;;;49.22;43.90;;;13.30;99.90;;;;;;5032105;28;20026;-70
2023/11/02 03:16:37;;;;;;;58.55;52.92;;;13.30;99.90;;;;;;5030957;28;20057;-70
2023/11/02 03:19:05;;;;;;;54.38;48.92;;;13.30;99.90;;;;;;5031621;28;20037;-70
2023/11/02 03:21:31;;;;;;;64.32;58.58;;;13.30;99.90;;;;;;5030644;28;20053;-70
2023/11/02 03:24:11;;;;;;;68.15;62.20;;;13.30;99.90;;;;;;5032668;28;20025;-70
2023/11/02 03:27:14;;;;;;;58.38;53.20;;;13.30;99.90;;;;;;5031414;28;20391;-70
2023/11/02 03:29:47;;;;;;;53.55;48.33;;;13.30;99.90;;;;;;4974598;28;20045;-71
2023/11/02 03:32:19;;;;;;;44.40;40.15;;;13.30;99.90;;;;;;4974220;28;20042;-70
2023/11/02 03:34:56;;;;;;;50.28;45.88;;;13.30;99.90;;;;;;4991520;28;20031;-70
2023/11/02 03:37:34;;;;;;;67.35;61.40;;;13.30;99.90;;;;;;4990235;28;20045;-70
2023/11/02 03:40:24;;;;;;;66.88;61.40;;;13.30;99.90;;;;;;4955717;28;20038;-70
2023/11/02 03:43:06;;;;;;;78.65;72.38;;;13.30;99.90;;;;;;4974353;28;20053;-70
2023/11/02 03:45:52;;;;;;;86.97;79.38;;;13.30;99.90;;;;;;4973884;28;20034;-70
2023/11/02 03:48:45;;;;;;;64.78;59.50;;;13.30;99.90;;;;;;4976977;28;20161;-70
2023/11/02 03:51:42;;;;;;;79.00;72.35;;;13.30;99.90;;;;;;4971593;28;20042;-70
2023/11/02 03:54:34;;;;;;;60.70;54.90;;;13.30;99.90;;;;;;4977065;28;20042;-70
2023/11/02 03:57:19;;;;;;;129.48;121.00;;;13.30;99.90;;;;;;4975404;28;20046;-70
2023/11/02 04:00:00;;;;;;;54.35;49.13;;;13.30;99.90;;;;;;4990719;28;20026;-70
2023/11/02 04:02:31;;;;;;;;;;;13.30;99.90;;;;;;4973930;28;20057;-70
2023/11/02 04:05:20;;;;;;;82.40;75.88;;;13.30;99.90;;;;;;5030941;28;19920;-70
2023/11/02 04:07:55;;;;;;;95.07;88.55;;;13.30;99.90;;;;;;5025599;28;20049;-71
2023/11/02 04:10:31;;;;;;;66.45;61.58;;;13.30;99.90;;;;;;5032008;28;20025;-70
2023/11/02 04:13:07;;;;;;;72.65;67.45;;;13.30;99.90;;;;;;5031005;28;20022;-70
2023/11/02 04:15:33;;;;;;;65.93;60.80;;;13.30;99.90;;;;;;5030222;28;20037;-70
2023/11/02 04:18:00;;;;;;;80.60;75.03;;;13.30;99.90;;;;;;5030638;28;20045;-70
2023/11/02 04:20:29;;;;;;;83.28;77.35;;;13.20;99.90;;;;;;5030153;28;20044;-70
2023/11/02 04:22:55;;;;;;;59.03;54.45;;;13.30;99.90;;;;;;5031175;28;20025;-70
2023/11/02 04:25:21;;;;;;;65.82;60.60;;;13.30;99.90;;;;;;5030603;28;20033;-70
2023/11/02 04:27:47;;;;;;;72.88;67.40;;;13.30;99.90;;;;;;5030892;28;20025;-70
2023/11/02 04:30:15;;;;;;;59.40;54.97;;;13.30;99.90;;;;;;5031777;28;20037;-70
2023/11/02 04:32:42;;;;;;;81.07;75.22;;;13.30;99.90;;;;;;5032246;28;20046;-70
2023/11/02 04:35:09;;;;;;;78.50;72.53;;;13.40;99.90;;;;;;5035483;28;20028;-70
2023/11/02 04:37:35;;;;;;;83.13;77.00;;;13.40;99.90;;;;;;5034820;28;20389;-70
2023/11/02 04:40:01;;;;;;;88.32;82.00;;;13.40;99.90;;;;;;5035963;28;20030;-70
2023/11/02 04:42:27;;;;;;;58.85;53.78;;;13.40;99.90;;;;;;5035532;28;20072;-70
2023/11/02 04:44:54;;;;;;;63.10;58.08;;;13.30;99.90;;;;;;5036221;28;20032;-70
2023/11/02 04:47:20;;;;;;;62.97;57.55;;;13.30;99.90;;;;;;5017194;28;20510;-70
2023/11/02 04:49:46;;;;;;;69.32;64.20;;;13.30;99.90;;;;;;5034367;28;20026;-70
2023/11/02 04:52:13;;;;;;;56.35;51.95;;;13.30;99.90;;;;;;5035593;28;20033;-70
2023/11/02 04:54:39;;;;;;;72.82;66.35;;;13.20;99.90;;;;;;5034659;28;20025;-70
2023/11/02 04:57:05;;;;;;;94.32;87.45;;;13.20;99.90;;;;;;5023786;28;20038;-70
2023/11/02 04:59:43;;;;;;;86.30;80.20;;;13.20;99.90;;;;;;5035510;28;20029;-70
2023/11/02 05:02:10;;;;;;;52.33;48.05;;;13.20;99.90;;;;;;5059854;28;20045;-70
2023/11/02 05:04:37;;;;;;;70.25;65.03;;;13.00;99.90;;;;;;5025478;28;20028;-70
2023/11/02 05:07:03;;;;;;;45.88;41.47;;;13.00;99.90;;;;;;5033891;28;20026;-70
2023/11/02 05:09:30;;;;;;;50.17;45.95;;;12.90;99.90;;;;;;5034123;28;20048;-71
2023/11/02 05:11:56;;;;;;;69.50;63.97;;;12.90;99.90;;;;;;5034933;28;20033;-71
2023/11/02 05:14:22;;;;;;;60.15;55.25;;;12.90;99.90;;;;;;5035377;28;20042;-71
2023/11/02 05:16:48;;;;;;;71.32;66.40;;;12.90;99.90;;;;;;5032881;28;20506;-71
2023/11/02 05:19:14;;;;;;;60.25;55.33;;;12.90;99.90;;;;;;5034400;28;20036;-70
2023/11/02 05:21:40;;;;;;;48.97;44.63;;;12.80;99.90;;;;;;5033342;28;20486;-69
2023/11/02 05:24:09;;;;;;;56.47;52.10;;;12.80;99.90;;;;;;5035163;28;20021;-69
2023/11/02 05:26:38;;;;;;;51.47;47.97;;;12.70;99.90;;;;;;5033182;28;20486;-70
2023/11/02 05:29:05;;;;;;;51.10;47.00;;;12.70;99.90;;;;;;5032585;28;20064;-70
2023/11/02 05:31:31;;;;;;;74.97;69.68;;;12.60;99.90;;;;;;5033935;28;20038;-70
2023/11/02 05:33:57;;;;;;;60.00;55.17;;;12.60;99.90;;;;;;5033587;28;20105;-70
2023/11/02 05:36:25;;;;;;;86.38;80.80;;;12.60;99.90;;;;;;5034462;28;20096;-69
2023/11/02 05:38:52;;;;;;;70.05;64.97;;;12.60;99.90;;;;;;5033564;28;20026;-69
2023/11/02 05:41:18;;;;;;;66.22;60.85;;;12.50;99.90;;;;;;5034072;28;20036;-69
2023/11/02 05:43:44;;;;;;;68.22;63.13;;;12.50;99.90;;;;;;5034746;28;20033;-69
2023/11/02 05:46:10;;;;;;;66.10;60.70;;;12.60;99.90;;;;;;5031962;28;20400;-70
2023/11/02 05:48:36;;;;;;;68.30;62.67;;;12.60;99.90;;;;;;5034430;28;20022;-70
2023/11/02 05:51:03;;;;;;;85.50;79.78;;;12.60;99.90;;;;;;5032243;28;20045;-70
2023/11/02 05:53:29;;;;;;;53.90;49.53;;;12.60;99.90;;;;;;5007669;28;20041;-70
2023/11/02 05:55:55;;;;;;;86.63;80.90;;;12.60;99.90;;;;;;5033836;28;20025;-69
2023/11/02 05:58:21;;;;;;;84.13;78.05;;;12.50;99.90;;;;;;5033392;28;20489;-69
2023/11/02 06:00:48;;;;;;;71.07;65.57;;;12.50;99.90;;;;;;5033466;28;20041;-69
2023/11/02 06:03:14;;;;;;;39.75;36.65;;;12.50;99.90;;;;;;5034173;28;20041;-69
2023/11/02 06:05:40;;;;;;;69.45;64.43;;;12.40;99.90;;;;;;5034160;28;20028;-69
2023/11/02 06:08:06;;;;;;;51.78;46.85;;;12.50;99.90;;;;;;5032947;28;20049;-69
2023/11/02 06:10:32;;;;;;;68.32;63.50;;;12.40;99.90;;;;;;5033978;28;20025;-69
2023/11/02 06:12:59;;;;;;;72.95;67.47;;;12.40;99.90;;;;;;5034304;28;20030;-69
2023/11/02 06:15:25;;;;;;;60.42;55.42;;;12.50;99.90;;;;;;5032262;28;20036;-69
2023/11/02 06:17:51;;;;;;;62.58;57.45;;;12.50;99.90;;;;;;5033872;28;20049;-69
2023/11/02 06:20:17;;;;;;;75.57;69.25;;;12.50;99.90;;;;;;5033639;28;20034;-69
2023/11/02 06:22:43;;;;;;;76.15;70.47;;;12.40;99.90;;;;;;5033821;28;20037;-69
2023/11/02 06:25:09;;;;;;;57.67;52.30;;;12.40;99.90;;;;;;5033871;28;20037;-70
2023/11/02 06:27:35;;;;;;;68.88;63.08;;;12.40;99.90;;;;;;5033890;28;20064;-70
2023/11/02 06:30:01;;;;;;;77.00;71.38;;;12.40;99.90;;;;;;5033721;28;20025;-69
2023/11/02 06:32:27;;;;;;;77.55;71.65;;;12.40;99.90;;;;;;5031801;28;20034;-70
2023/11/02 06:34:53;;;;;;;87.88;81.28;;;12.40;99.90;;;;;;5033994;28;20030;-69
2023/11/02 06:37:20;;;;;;;56.38;51.10;;;12.40;99.90;;;;;;5033765;28;20037;-70
2023/11/02 06:39:48;;;;;;;55.78;50.78;;;12.40;99.90;;;;;;5033835;28;20386;-69
2023/11/02 06:42:14;;;;;;;55.42;49.75;;;12.40;99.90;;;;;;5031826;28;20049;-70
2023/11/02 06:44:43;;;;;;;64.20;58.22;;;12.40;99.90;;;;;;5032221;28;20033;-70
2023/11/02 06:47:13;;;;;;;66.63;61.38;;;12.30;99.90;;;;;;5031715;28;20030;-69
2023/11/02 06:49:40;;;;;;;73.82;67.22;;;12.30;99.90;;;;;;5033532;28;20032;-69
2023/11/02 06:52:06;;;;;;;66.13;59.80;;;12.40;99.90;;;;;;5033262;28;20033;-69
2023/11/02 06:54:32;;;;;;;59.55;53.75;;;12.30;99.90;;;;;;5033434;28;20497;-69
2023/11/02 06:56:59;;;;;;;62.40;56.88;;;12.40;99.90;;;;;;5032268;28;20483;-69
2023/11/02 06:59:25;;;;;;;59.45;54.17;;;12.40;99.90;;;;;;5033027;28;20043;-69
2023/11/02 07:01:53;;;;;;;67.18;61.47;;;12.30;99.90;;;;;;5032494;28;20046;-69
2023/11/02 07:04:20;;;;;;;49.00;44.38;;;12.40;99.90;;;;;;5030178;28;20037;-69
2023/11/02 07:06:46;;;;;;;40.08;36.22;;;12.40;99.90;;;;;;5031828;28;20557;-69
2023/11/02 07:09:14;;;;;;;44.50;39.97;;;12.40;99.90;;;;;;5031986;28;20037;-69
2023/11/02 07:11:40;;;;;;;44.97;40.53;;;12.40;99.90;;;;;;5032743;28;20025;-69
2023/11/02 07:14:06;;;;;;;36.85;33.60;;;12.40;99.90;;;;;;5031433;28;20462;-69
2023/11/02 07:16:32;;;;;;;53.15;49.30;;;12.50;99.90;;;;;;5030245;28;20053;-69
2023/11/02 07:19:01;;;;;;;48.00;44.25;;;12.50;99.90;;;;;;5027149;28;20375;-69
2023/11/02 07:21:27;;;;;;;52.70;48.75;;;12.50;99.90;;;;;;5026911;28;20061;-69
2023/11/02 07:23:53;;;;;;;46.40;42.63;;;12.50;99.90;;;;;;5032843;28;20048;-69
2023/11/02 07:26:19;;;;;;;46.65;42.90;;;12.50;99.90;;;;;;5031514;28;20029;-69
2023/11/02 07:28:45;;;;;;;48.45;44.78;;;12.50;99.90;;;;;;5032448;28;20360;-69
2023/11/02 07:31:11;;;;;;;69.85;65.32;;;12.50;99.90;;;;;;5031510;28;20048;-69
2023/11/02 07:33:40;;;;;;;76.13;71.15;;;12.60;99.90;;;;;;5032521;28;20414;-69
2023/11/02 07:36:12;;;;;;;47.92;43.92;;;12.60;99.90;;;;;;5029247;28;20029;-71
2023/11/02 07:38:38;;;;;;;39.95;36.60;;;12.50;99.90;;;;;;5031391;28;20479;-71
2023/11/02 07:41:07;;;;;;;46.47;42.15;;;12.60;99.90;;;;;;5024715;28;20034;-71
2023/11/02 07:43:33;;;;;;;59.90;50.67;;;12.50;99.90;;;;;;5023727;28;20026;-72
2023/11/02 07:45:59;;;;;;;59.20;55.00;;;12.50;99.90;;;;;;5018413;28;20467;-72
2023/11/02 07:48:26;;;;;;;74.00;68.18;;;12.60;99.90;;;;;;5014501;28;20033;-71
2023/11/02 07:50:52;;;;;;;52.70;48.42;;;12.60;99.90;;;;;;5031744;28;20029;-72
2023/11/02 07:53:19;;;;;;;45.38;41.40;;;12.60;99.90;;;;;;5022569;28;20026;-72
2023/11/02 07:55:46;;;;;;;45.15;41.03;;;12.60;99.90;;;;;;5015638;28;20036;-71
2023/11/02 07:58:13;;;;;;;53.25;48.33;;;12.70;99.90;;;;;;5030961;28;20486;-72
2023/11/02 08:00:39;;;;;;;46.65;41.88;;;12.70;99.90;;;;;;5010545;28;20041;-72
2023/11/02 08:03:05;;;;;;;55.05;49.53;;;12.80;99.90;;;;;;5012135;28;20049;-72
2023/11/02 08:05:31;;;;;;;48.55;43.70;;;12.90;99.90;;;;;;5005039;28;20030;-72
2023/11/02 08:07:57;;;;;;;55.00;49.95;;;12.90;99.90;;;;;;5010435;28;20509;-72
2023/11/02 08:10:24;;;;;;;71.72;66.75;;;12.90;99.90;;;;;;5006396;28;20029;-72
2023/11/02 08:12:50;;;;;;;52.83;48.22;;;12.90;99.90;;;;;;5010569;28;20458;-73
2023/11/02 08:15:16;;;;;;;60.28;55.67;;;12.90;99.90;;;;;;5010470;28;20505;-72
2023/11/02 08:17:42;;;;;;;66.10;61.30;;;12.90;99.90;;;;;;5012016;28;20053;-71
2023/11/02 08:20:10;;;;;;;53.33;48.25;;;12.90;99.90;;;;;;5009467;28;20041;-74
2023/11/02 08:22:36;;;;;;;63.83;59.15;;;12.90;99.90;;;;;;5008288;28;20046;-72
2023/11/02 08:25:03;;;;;;;62.80;57.50;;;12.90;99.90;;;;;;4999499;28;20034;-71
2023/11/02 08:27:29;;;;;;;53.30;48.15;;;12.90;99.90;;;;;;5008416;28;20030;-72
2023/11/02 08:29:55;;;;;;;56.10;51.42;;;12.90;99.90;;;;;;4996924;28;20027;-72
2023/11/02 08:32:22;;;;;;;84.80;78.93;;;12.80;99.90;;;;;;5035021;28;20053;-71
2023/11/02 08:34:48;;;;;;;75.80;69.97;;;12.90;99.90;;;;;;5008059;28;20065;-72
2023/11/02 08:37:14;;;;;;;70.70;64.97;;;13.00;99.90;;;;;;5010188;28;20042;-72
2023/11/02 08:39:40;;;;;;;121.07;113.38;;;12.90;99.90;;;;;;5003297;28;20034;-72
2023/11/02 08:42:06;;;;;;;72.72;67.22;;;12.90;99.90;;;;;;5009389;28;20049;-76
2023/11/02 08:44:33;;;;;;;67.45;62.05;;;13.00;99.90;;;;;;4998779;28;20045;-72
2023/11/02 08:46:59;;;;;;;62.60;58.13;;;13.00;99.90;;;;;;5009292;28;20038;-72
2023/11/02 08:49:25;;;;;;;67.20;61.63;;;13.00;99.90;;;;;;5000722;28;20033;-72
2023/11/02 08:51:51;;;;;;;64.35;58.85;;;13.10;99.90;;;;;;5011257;28;20034;-72
2023/11/02 08:54:17;;;;;;;72.60;66.90;;;13.00;99.90;;;;;;5011948;28;20034;-72
2023/11/02 08:56:43;;;;;;;67.60;61.47;;;13.10;99.90;;;;;;5010096;28;20038;-72
2023/11/02 08:59:09;;;;;;;62.97;57.78;;;13.00;99.90;;;;;;5010232;28;20395;-73
2023/11/02 09:01:36;;;;;;;67.03;61.35;;;13.10;99.90;;;;;;5039691;28;20037;-72
2023/11/02 09:04:02;;;;;;;68.18;62.78;;;13.10;99.90;;;;;;4992131;28;20033;-72
2023/11/02 09:06:28;;;;;;;66.93;61.03;;;13.10;99.90;;;;;;5010837;28;20027;-72
2023/11/02 09:08:56;;;;;;;58.78;54.15;;;13.10;99.90;;;;;;4994586;28;20030;-72
2023/11/02 09:11:22;;;;;;;57.25;52.15;;;13.10;99.90;;;;;;5006957;28;20495;-72
2023/11/02 09:13:49;;;;;;;73.28;67.85;;;13.10;99.90;;;;;;4998492;28;20034;-72
2023/11/02 09:16:15;;;;;;;67.90;62.80;;;13.20;99.90;;;;;;5003849;28;20503;-72
2023/11/02 09:18:41;;;;;;;70.22;64.00;;;13.30;99.90;;;;;;5010352;28;20562;-72
2023/11/02 09:21:07;;;;;;;63.05;57.08;;;13.30;99.90;;;;;;5012156;28;20387;-72
2023/11/02 09:23:34;;;;;;;67.55;62.17;;;13.30;99.90;;;;;;5014437;28;20053;-72
2023/11/02 09:26:05;;;;;;;70.03;63.95;;;13.30;99.90;;;;;;5011242;28;20026;-72
2023/11/02 09:28:31;;;;;;;71.38;65.60;;;13.30;99.90;;;;;;5002982;28;20030;-72
2023/11/02 09:30:57;;;;;;;66.10;60.20;;;13.30;99.90;;;;;;5011524;28;20034;-72
2023/11/02 09:33:23;;;;;;;70.55;65.22;;;13.30;99.90;;;;;;5002982;28;20370;-72
2023/11/02 09:35:49;;;;;;;66.75;61.45;;;13.30;99.90;;;;;;5010847;28;20033;-71
2023/11/02 09:38:15;;;;;;;76.63;70.47;;;13.30;99.90;;;;;;5009425;28;20045;-72
2023/11/02 09:40:41;;;;;;;70.95;65.35;;;13.30;99.90;;;;;;5012381;28;20053;-72
2023/11/02 09:43:08;;;;;;;69.30;63.65;;;13.30;99.90;;;;;;5013524;28;20050;-72
2023/11/02 09:45:36;;;;;;;76.47;70.13;;;13.40;99.90;;;;;;5014308;28;20404;-72
2023/11/02 09:48:03;;;;;;;101.10;93.10;;;13.40;99.90;;;;;;5014182;28;20053;-72
2023/11/02 09:50:29;;;;;;;79.78;73.80;;;13.50;99.90;;;;;;5008416;28;20057;-72
2023/11/02 09:52:56;;;;;;;70.18;64.22;;;13.60;99.90;;;;;;5001811;28;20038;-70
2023/11/02 09:55:25;;;;;;;99.28;92.18;;;13.70;99.90;;;;;;4999649;28;20034;-72
2023/11/02 09:57:51;;;;;;;88.28;81.20;;;13.80;99.90;;;;;;5012702;28;20484;-71
2023/11/02 10:00:17;;;;;;;94.55;86.68;;;13.90;99.90;;;;;;5004422;28;20053;-72
2023/11/02 10:02:47;;;;;;;75.53;69.95;;;13.80;99.90;;;;;;5014144;28;20061;-72
2023/11/02 10:05:13;;;;;;;106.32;99.28;;;13.70;99.90;;;;;;4993797;28;20030;-72
2023/11/02 10:07:40;;;;;;;101.45;94.45;;;13.70;99.90;;;;;;5012763;28;20026;-72
2023/11/02 10:10:08;;;;;;;86.93;80.85;;;13.80;99.90;;;;;;5001001;28;20042;-72
2023/11/02 10:12:37;;;;;;;76.32;70.25;;;13.90;99.90;;;;;;5003220;28;20057;-71
2023/11/02 10:15:04;;;;;;;86.75;80.45;;;13.90;99.90;;;;;;5010972;28;20042;-70
2023/11/02 10:17:35;;;;;;;79.28;73.18;;;14.00;99.90;;;;;;4990238;28;20050;-70
2023/11/02 10:20:07;;;;;;;89.82;83.57;;;14.00;99.90;;;;;;4996033;28;20140;-71
2023/11/02 10:22:33;;;;;;;100.50;93.15;;;14.00;99.90;;;;;;5011793;28;20050;-70
2023/11/02 10:24:59;;;;;;;77.97;71.45;;;13.90;99.90;;;;;;5014117;28;20383;-70
2023/11/02 10:27:26;;;;;;;80.28;74.28;;;13.90;99.90;;;;;;4994695;28;20487;-70
2023/11/02 10:29:52;;;;;;;92.80;85.78;;;13.90;99.90;;;;;;5003453;28;20038;-72
2023/11/02 10:32:21;;;;;;;84.03;77.68;;;13.90;99.90;;;;;;5000068;28;20038;-72
2023/11/02 10:34:47;;;;;;;88.05;81.55;;;13.90;99.90;;;;;;5013058;28;20022;-72
2023/11/02 10:37:13;;;;;;;100.40;92.90;;;14.00;99.90;;;;;;5013261;28;20029;-72
2023/11/02 10:39:39;;;;;;;115.15;106.30;;;14.00;99.90;;;;;;5012531;28;20026;-72
2023/11/02 10:42:06;;;;;;;86.97;80.30;;;14.00;99.90;;;;;;4996257;28;20050;-72
2023/11/02 10:44:36;;;;;;;97.82;90.57;;;14.00;99.90;;;;;;5012393;28;20022;-71
2023/11/02 10:47:03;;;;;;;115.88;108.22;;;14.10;99.90;;;;;;5002070;28;20050;-70
2023/11/02 10:49:36;;;;;;;95.18;88.63;;;14.30;99.90;;;;;;5004844;28;20029;-71
2023/11/02 10:52:10;;;;;;;97.40;90.35;;;14.40;99.90;;;;;;5011461;28;20026;-70
2023/11/02 10:54:49;;;;;;;122.05;113.57;;;14.50;99.90;;;;;;5013078;28;20029;-70
2023/11/02 10:57:16;;;;;;;92.28;84.80;;;14.60;99.90;;;;;;5008372;28;20034;-70
2023/11/02 10:59:46;;;;;;;135.88;126.43;;;14.60;99.90;;;;;;5011669;28;20029;-70
2023/11/02 11:02:14;;;;;;;133.77;125.00;;;14.50;99.90;;;;;;5011544;28;20099;-71
2023/11/02 11:04:41;;;;;;;119.05;111.15;;;14.40;99.90;;;;;;5011547;28;20033;-70
2023/11/02 11:07:11;;;;;;;103.43;96.72;;;14.30;99.90;;;;;;4994903;28;20034;-70
2023/11/02 11:09:38;;;;;;;100.60;93.80;;;14.00;99.90;;;;;;5012981;28;20026;-70
2023/11/02 11:12:04;;;;;;;94.38;87.85;;;13.90;99.90;;;;;;5011334;28;20061;-70
2023/11/02 11:14:34;;;;;;;77.57;71.78;;;13.80;99.90;;;;;;5012579;28;20041;-70
2023/11/02 11:17:00;;;;;;;86.00;80.28;;;13.80;99.90;;;;;;5010738;28;20419;-70
2023/11/02 11:19:33;;;;;;;72.63;67.15;;;13.90;99.90;;;;;;5011811;28;20034;-71
2023/11/02 11:22:02;;;;;;;66.43;61.03;;;13.90;99.90;;;;;;5021866;28;20045;-70
2023/11/02 11:24:31;;;;;;;81.38;75.28;;;14.00;99.90;;;;;;5011180;28;20054;-70
2023/11/02 11:26:58;;;;;;;88.18;82.07;;;14.00;99.90;;;;;;5010628;28;20026;-70
2023/11/02 11:29:43;;;;;;;81.55;75.68;;;14.00;99.90;;;;;;5012706;28;20383;-69
2023/11/02 11:32:24;;;;;;;98.20;91.28;;;13.90;99.90;;;;;;5010640;28;20030;-70
2023/11/02 11:34:53;;;;;;;105.15;97.63;;;13.80;99.90;;;;;;5012171;28;20041;-70
2023/11/02 11:37:43;;;;;;;95.90;89.20;;;13.70;99.90;;;;;;5012065;28;20097;-70
2023/11/02 11:40:23;;;;;;;93.43;86.82;;;13.70;99.90;;;;;;5010678;28;20463;-70
2023/11/02 11:42:56;;;;;;;76.85;71.10;;;13.70;99.90;;;;;;5011725;28;20053;-70
2023/11/02 11:45:51;;;;;;;80.80;75.18;;;13.60;99.90;;;;;;5010173;28;20041;-70
2023/11/02 11:48:37;;;;;;;89.47;83.53;;;13.60;99.90;;;;;;4999703;28;20038;-70
2023/11/02 11:51:31;;;;;;;99.95;92.60;;;13.60;99.90;;;;;;4994702;28;20030;-69
2023/11/02 11:54:10;;;;;;;95.40;88.53;;;13.60;99.90;;;;;;4992378;28;20026;-69
2023/11/02 11:56:37;;;;;;;100.28;93.47;;;13.50;99.90;;;;;;5003970;28;20034;-70
2023/11/02 11:59:03;;;;;;;98.30;91.95;;;13.50;99.90;;;;;;4993108;28;20038;-69
2023/11/02 12:01:30;;;;;;;80.80;75.28;;;13.70;99.90;;;;;;5009990;28;20042;-70
2023/11/02 12:03:57;;;;;;;91.80;85.53;;;13.80;99.90;;;;;;5005763;28;20045;-70
2023/11/02 12:06:36;;;;;;;76.25;70.85;;;13.90;99.90;;;;;;5003936;28;20034;-69
2023/11/02 12:09:03;;;;;;;80.95;75.13;;;14.00;99.90;;;;;;5018610;28;20037;-70
2023/11/02 12:11:30;;;;;;;85.18;79.82;;;14.00;99.90;;;;;;5002761;28;20026;-70
2023/11/02 12:13:58;;;;;;;82.43;76.97;;;14.00;99.90;;;;;;5003360;28;20395;-70
2023/11/02 12:16:31;;;;;;;95.90;89.28;;;14.00;99.90;;;;;;5005702;28;20038;-70
2023/11/02 12:18:57;;;;;;;111.85;104.28;;;14.10;99.90;;;;;;5009010;28;20887;-70
2023/11/02 12:21:24;;;;;;;97.57;91.07;;;14.10;99.90;;;;;;5008823;28;20026;-70
2023/11/02 12:23:51;;;;;;;112.05;105.00;;;14.00;99.90;;;;;;5009913;28;20496;-70
2023/11/02 12:26:21;;;;;;;103.10;95.90;;;14.00;99.90;;;;;;5010149;28;20037;-70
2023/11/02 12:28:49;;;;;;;103.43;96.95;;;14.10;99.90;;;;;;5004216;28;20037;-70
2023/11/02 12:31:32;;;;;;;101.65;94.93;;;14.10;99.90;;;;;;5009840;28;20037;-70
2023/11/02 12:34:08;;;;;;;121.20;112.88;;;14.00;99.90;;;;;;5005451;28;20506;-70
2023/11/02 12:36:35;;;;;;;96.18;90.05;;;14.00;99.90;;;;;;5005005;28;20037;-70
2023/11/02 12:39:18;;;;;;;109.18;101.93;;;14.00;99.90;;;;;;4993205;28;20036;-69